createdAt,value
2023-05-02T00:00:38.850Z,12.40
2023-05-02T00:03:28.744Z,12.50
2023-05-02T00:06:19.009Z,12.40
2023-05-02T00:09:08.888Z,12.40
2023-05-02T00:11:58.917Z,12.40
2023-05-02T00:14:48.156Z,12.50
2023-05-02T00:17:42.027Z,12.40
2023-05-02T00:20:32.267Z,12.50
2023-05-02T00:23:22.103Z,12.40
2023-05-02T00:26:14.954Z,12.40
2023-05-02T00:29:05.390Z,12.50
2023-05-02T00:31:54.853Z,12.50
2023-05-02T00:34:46.399Z,12.50
2023-05-02T00:37:35.108Z,12.40
2023-05-02T00:40:23.788Z,12.30
2023-05-02T00:43:12.667Z,12.30
2023-05-02T00:46:01.529Z,12.30
2023-05-02T00:48:50.668Z,12.40
2023-05-02T00:51:41.275Z,12.30
2023-05-02T00:54:31.161Z,12.40
2023-05-02T00:57:19.814Z,12.40
2023-05-02T01:00:10.841Z,12.50
2023-05-02T01:03:13.712Z,12.30
2023-05-02T01:06:21.268Z,12.40
2023-05-02T01:09:28.696Z,12.30
2023-05-02T01:12:24.424Z,12.30
2023-05-02T01:15:23.227Z,12.20
2023-05-02T01:18:14.813Z,12.20
2023-05-02T01:21:08.514Z,12.20
2023-05-02T01:24:06.683Z,12.20
2023-05-02T01:27:07.948Z,12.30
2023-05-02T01:30:01.194Z,12.20
2023-05-02T01:32:53.963Z,12.10
2023-05-02T01:35:44.865Z,12.10
2023-05-02T01:38:35.535Z,12.10
2023-05-02T01:41:28.400Z,12.00
2023-05-02T01:44:18.356Z,12.10
2023-05-02T01:47:10.985Z,12.00
2023-05-02T01:50:01.316Z,12.10
2023-05-02T01:52:53.072Z,12.20
2023-05-02T01:55:45.264Z,12.20
2023-05-02T01:58:37.931Z,12.20
2023-05-02T02:01:29.083Z,12.20
2023-05-02T02:04:22.040Z,12.00
2023-05-02T02:07:14.310Z,11.90
2023-05-02T02:10:03.425Z,11.90
2023-05-02T02:12:55.448Z,11.90
2023-05-02T02:15:48.259Z,11.90
2023-05-02T02:18:40.498Z,12.00
2023-05-02T02:21:33.828Z,11.90
2023-05-02T02:24:23.877Z,11.90
2023-05-02T02:27:12.744Z,11.70
2023-05-02T02:30:02.315Z,11.80
2023-05-02T02:32:51.689Z,11.90
2023-05-02T02:35:44.138Z,11.80
2023-05-02T02:38:42.315Z,11.60
2023-05-02T02:41:38.080Z,11.70
2023-05-02T02:44:34.221Z,11.60
2023-05-02T02:47:30.395Z,11.70
2023-05-02T02:50:26.441Z,11.80
2023-05-02T02:53:19.793Z,11.70
2023-05-02T02:56:17.687Z,11.60
2023-05-02T02:59:12.384Z,11.60
2023-05-02T03:02:07.196Z,11.70
2023-05-02T03:04:58.024Z,11.60
2023-05-02T03:07:46.880Z,11.50
2023-05-02T03:10:35.813Z,11.50
2023-05-02T03:13:26.057Z,11.40
2023-05-02T03:16:34.806Z,11.40
2023-05-02T03:19:25.278Z,11.50
2023-05-02T03:22:14.319Z,11.40
2023-05-02T03:25:03.823Z,11.40
2023-05-02T03:27:52.738Z,11.40
2023-05-02T03:30:42.834Z,11.40
2023-05-02T03:33:33.817Z,11.50
2023-05-02T03:36:22.708Z,11.40
2023-05-02T03:39:14.452Z,11.50
2023-05-02T03:42:04.156Z,11.30
2023-05-02T03:44:54.804Z,11.30
2023-05-02T03:47:45.722Z,11.50
2023-05-02T03:50:34.781Z,11.70
2023-05-02T03:53:23.508Z,11.60
2023-05-02T03:56:21.005Z,11.60
2023-05-02T03:59:20.323Z,11.60
2023-05-02T04:02:09.499Z,11.60
2023-05-02T04:05:04.176Z,11.60
2023-05-02T04:07:53.419Z,11.60
2023-05-02T04:10:42.466Z,11.70
2023-05-02T04:13:33.305Z,11.70
2023-05-02T04:16:22.864Z,11.80
2023-05-02T04:19:12.408Z,11.80
2023-05-02T04:22:03.649Z,11.70
2023-05-02T04:24:56.699Z,11.60
2023-05-02T04:27:47.369Z,11.70
2023-05-02T04:30:39.828Z,11.70
2023-05-02T04:33:32.373Z,11.80
2023-05-02T04:36:21.628Z,11.90
2023-05-02T04:39:12.233Z,12.10
2023-05-02T04:42:06.176Z,12.10
2023-05-02T04:45:00.932Z,12.10
2023-05-02T04:47:49.745Z,12.20
2023-05-02T04:50:38.628Z,12.10
2023-05-02T04:53:27.590Z,12.20
2023-05-02T04:56:17.794Z,12.20
2023-05-02T04:59:06.587Z,12.20
2023-05-02T05:01:56.583Z,12.30
2023-05-02T05:04:45.873Z,12.40
2023-05-02T05:07:35.155Z,12.40
2023-05-02T05:10:24.125Z,12.70
2023-05-02T05:13:14.298Z,12.80
2023-05-02T05:16:05.006Z,13.00
2023-05-02T05:18:55.919Z,13.10
2023-05-02T05:21:44.658Z,13.40
2023-05-02T05:24:35.074Z,13.60
2023-05-02T05:27:24.174Z,13.50
2023-05-02T05:30:14.524Z,13.70
2023-05-02T05:33:05.502Z,13.70
2023-05-02T05:35:54.477Z,13.90
2023-05-02T05:38:43.408Z,13.70
2023-05-02T05:41:34.374Z,14.00
2023-05-02T05:44:27.405Z,14.40
2023-05-02T05:47:22.954Z,14.20
2023-05-02T05:50:13.232Z,14.10
2023-05-02T05:53:03.357Z,14.40
2023-05-02T05:55:52.851Z,14.60
2023-05-02T05:58:43.136Z,14.90
2023-05-02T06:01:35.936Z,15.30
2023-05-02T06:04:27.697Z,15.80
2023-05-02T06:07:16.942Z,15.80
2023-05-02T06:10:08.615Z,15.70
2023-05-02T06:12:57.928Z,15.80
2023-05-02T06:15:51.617Z,15.80
2023-05-02T06:18:40.571Z,15.80
2023-05-02T06:21:31.688Z,16.00
2023-05-02T06:24:20.423Z,16.20
2023-05-02T06:27:09.263Z,17.20
2023-05-02T06:29:58.258Z,17.50
2023-05-02T06:32:47.636Z,16.90
2023-05-02T06:35:36.548Z,16.70
2023-05-02T06:38:26.965Z,16.60
2023-05-02T06:41:18.122Z,16.70
2023-05-02T06:44:07.242Z,16.90
2023-05-02T06:46:56.815Z,17.20
2023-05-02T06:49:45.662Z,17.20
2023-05-02T06:52:34.429Z,17.50
2023-05-02T06:55:24.533Z,17.30
2023-05-02T06:58:13.382Z,17.50
2023-05-02T07:01:02.243Z,17.80
2023-05-02T07:03:51.195Z,18.00
2023-05-02T07:06:40.208Z,18.10
2023-05-02T07:09:29.161Z,18.30
2023-05-02T07:12:19.316Z,18.60
2023-05-02T07:15:10.395Z,18.80
2023-05-02T07:17:59.125Z,19.00
2023-05-02T07:20:48.086Z,19.10
2023-05-02T07:23:36.977Z,19.10
2023-05-02T07:26:26.487Z,19.20
2023-05-02T07:29:16.708Z,19.60
2023-05-02T07:32:06.257Z,19.60
2023-05-02T07:34:56.394Z,19.80
2023-05-02T07:37:45.170Z,20.10
2023-05-02T07:40:34.148Z,20.20
2023-05-02T07:43:22.969Z,20.40
2023-05-02T07:46:13.205Z,20.40
2023-05-02T07:49:02.256Z,20.20
2023-05-02T07:51:50.988Z,20.30
2023-05-02T07:54:39.833Z,20.20
2023-05-02T07:57:28.844Z,21.00
2023-05-02T08:00:18.657Z,21.20
2023-05-02T08:03:08.955Z,21.40
2023-05-02T08:05:57.746Z,21.10
2023-05-02T08:08:46.425Z,21.30
2023-05-02T08:11:35.144Z,21.40
2023-05-02T08:14:23.912Z,21.50
2023-05-02T08:17:21.637Z,21.30
2023-05-02T08:20:13.159Z,21.80
2023-05-02T08:23:03.682Z,22.20
2023-05-02T08:25:52.537Z,22.50
2023-05-02T08:28:41.319Z,23.00
2023-05-02T08:31:30.068Z,23.70
2023-05-02T08:34:18.824Z,24.30
2023-05-02T08:37:12.307Z,24.60
2023-05-02T08:40:02.365Z,24.70
2023-05-02T08:42:53.227Z,24.30
2023-05-02T08:45:43.326Z,24.70
2023-05-02T08:48:33.281Z,24.00
2023-05-02T08:51:25.711Z,23.70
2023-05-02T08:54:18.733Z,24.90
2023-05-02T08:57:07.863Z,25.70
2023-05-02T08:59:56.641Z,26.10
2023-05-02T09:03:00.129Z,26.50
2023-05-02T09:05:54.145Z,25.80
2023-05-02T09:08:44.044Z,24.90
2023-05-02T09:11:34.440Z,25.70
2023-05-02T09:14:24.056Z,25.90
2023-05-02T09:17:12.919Z,25.30
2023-05-02T09:20:02.292Z,25.00
2023-05-02T09:22:52.511Z,25.10
2023-05-02T09:25:41.725Z,25.80
2023-05-02T09:28:42.597Z,25.70
2023-05-02T09:31:54.045Z,25.30
2023-05-02T09:35:07.008Z,25.20
2023-05-02T09:37:57.120Z,24.80
2023-05-02T09:40:56.218Z,24.20
2023-05-02T09:43:57.254Z,24.20
2023-05-02T09:46:48.004Z,24.30
2023-05-02T09:49:44.951Z,24.10
2023-05-02T09:52:34.024Z,24.30
2023-05-02T09:55:22.852Z,26.30
2023-05-02T09:58:22.647Z,27.00
2023-05-02T10:01:18.168Z,27.40
2023-05-02T10:04:07.022Z,26.50
2023-05-02T10:06:56.892Z,25.80
2023-05-02T10:09:47.122Z,25.90
2023-05-02T10:12:36.436Z,25.70
2023-05-02T10:15:28.282Z,26.10
2023-05-02T10:18:29.529Z,25.40
2023-05-02T10:21:21.477Z,25.20
2023-05-02T10:24:11.318Z,24.70
2023-05-02T10:27:05.067Z,24.10
2023-05-02T10:29:55.094Z,23.80
2023-05-02T10:32:49.971Z,23.30
2023-05-02T10:35:46.766Z,23.20
2023-05-02T10:38:37.363Z,23.20
2023-05-02T10:41:32.057Z,22.90
2023-05-02T10:44:37.319Z,22.90
2023-05-02T10:47:31.295Z,22.70
2023-05-02T10:50:21.870Z,22.40
2023-05-02T10:53:30.608Z,21.90
2023-05-02T10:56:22.314Z,21.80
2023-05-02T10:59:29.502Z,21.60
2023-05-02T11:02:48.930Z,21.50
2023-05-02T11:06:08.236Z,21.20
2023-05-02T11:09:30.290Z,21.00
2023-05-02T11:12:48.779Z,20.60
2023-05-02T11:15:58.034Z,20.50
2023-05-02T11:19:02.512Z,20.30
2023-05-02T11:21:53.839Z,20.20
2023-05-02T11:24:44.784Z,19.80
2023-05-02T11:27:39.621Z,19.40
2023-05-02T11:30:48.694Z,19.20
2023-05-02T11:33:37.805Z,18.90
2023-05-02T11:36:31.022Z,18.90
2023-05-02T11:39:23.682Z,19.00
2023-05-02T11:42:12.550Z,19.10
2023-05-02T11:45:02.521Z,19.20
2023-05-02T11:47:53.485Z,19.50
2023-05-02T11:50:49.709Z,19.90
2023-05-02T11:53:42.741Z,20.00
2023-05-02T11:56:31.945Z,19.80
2023-05-02T11:59:20.702Z,19.70
2023-05-02T12:02:09.530Z,19.60
2023-05-02T12:04:59.984Z,19.80
2023-05-02T12:07:49.458Z,20.00
2023-05-02T12:10:38.822Z,20.10
2023-05-02T12:13:28.253Z,20.20
2023-05-02T12:16:17.651Z,20.30
2023-05-02T12:19:07.188Z,20.70
2023-05-02T12:21:57.452Z,23.40
2023-05-02T12:24:46.649Z,24.80
2023-05-02T12:27:35.661Z,23.90
2023-05-02T12:30:27.813Z,23.80
2023-05-02T12:33:17.915Z,23.20
2023-05-02T12:36:13.278Z,23.20
2023-05-02T12:39:09.617Z,22.90
2023-05-02T12:42:07.826Z,22.50
2023-05-02T12:45:02.524Z,22.40
2023-05-02T12:47:53.282Z,22.50
2023-05-02T12:50:44.131Z,22.50
2023-05-02T12:53:46.392Z,22.50
2023-05-02T12:56:43.758Z,22.10
2023-05-02T12:59:34.744Z,21.90
2023-05-02T13:02:23.879Z,21.70
2023-05-02T13:05:16.729Z,21.40
2023-05-02T13:08:06.331Z,20.90
2023-05-02T13:10:55.255Z,21.00
2023-05-02T13:13:45.844Z,20.80
2023-05-02T13:16:36.815Z,20.50
2023-05-02T13:19:25.825Z,20.60
2023-05-02T13:22:14.947Z,20.60
2023-05-02T13:25:08.161Z,20.60
2023-05-02T13:27:56.989Z,20.50
2023-05-02T13:30:47.270Z,20.60
2023-05-02T13:33:36.136Z,20.60
2023-05-02T13:36:24.992Z,20.80
2023-05-02T13:39:14.096Z,21.00
2023-05-02T13:42:04.532Z,21.10
2023-05-02T13:44:54.915Z,21.00
2023-05-02T13:47:45.215Z,21.10
2023-05-02T13:50:37.415Z,21.20
2023-05-02T13:53:26.355Z,21.10
2023-05-02T13:56:15.363Z,21.00
2023-05-02T13:59:06.059Z,21.00
2023-05-02T14:01:56.548Z,20.80
2023-05-02T14:04:46.823Z,20.90
2023-05-02T14:07:35.594Z,21.00
2023-05-02T14:10:24.507Z,21.00
2023-05-02T14:13:13.250Z,21.10
2023-05-02T14:16:02.617Z,21.20
2023-05-02T14:18:51.578Z,20.90
2023-05-02T14:21:41.779Z,20.90
2023-05-02T14:24:30.849Z,20.90
2023-05-02T14:27:19.667Z,20.90
2023-05-02T14:30:09.849Z,20.80
2023-05-02T14:32:58.706Z,20.90
2023-05-02T14:35:47.585Z,20.90
2023-05-02T14:38:37.879Z,20.70
2023-05-02T14:41:27.801Z,20.60
2023-05-02T14:44:16.673Z,20.40
2023-05-02T14:47:05.614Z,20.50
2023-05-02T14:49:54.471Z,20.50
2023-05-02T14:52:43.342Z,20.40
2023-05-02T14:55:38.822Z,20.30
2023-05-02T14:58:27.801Z,20.30
2023-05-02T15:01:20.863Z,20.10
2023-05-02T15:04:10.691Z,20.20
2023-05-02T15:07:01.418Z,20.20
2023-05-02T15:09:50.396Z,20.10
2023-05-02T15:12:40.867Z,20.10
2023-05-02T15:15:30.060Z,20.00
2023-05-02T15:18:19.008Z,20.00
2023-05-02T15:21:07.855Z,20.00
2023-05-02T15:23:56.513Z,20.00
2023-05-02T15:26:45.657Z,19.90
2023-05-02T15:29:35.934Z,19.90
2023-05-02T15:32:24.589Z,19.80
2023-05-02T15:35:13.324Z,19.80
2023-05-02T15:38:02.312Z,19.70
2023-05-02T15:40:57.955Z,19.60
2023-05-02T15:43:46.701Z,19.60
2023-05-02T15:46:36.752Z,19.70
2023-05-02T15:49:31.965Z,19.70
2023-05-02T15:52:20.853Z,19.70
2023-05-02T15:55:10.292Z,19.70
2023-05-02T15:57:59.180Z,19.70
2023-05-02T16:00:48.070Z,19.70
2023-05-02T16:03:38.346Z,19.60
2023-05-02T16:06:27.783Z,19.70
2023-05-02T16:09:16.611Z,19.70
2023-05-02T16:12:07.386Z,19.70
2023-05-02T16:14:56.117Z,19.70
2023-05-02T16:17:44.921Z,19.70
2023-05-02T16:20:36.815Z,19.70
2023-05-02T16:23:26.011Z,19.60
2023-05-02T16:26:15.299Z,19.70
2023-05-02T16:29:04.095Z,19.60
2023-05-02T16:31:52.852Z,19.50
2023-05-02T16:34:45.216Z,19.60
2023-05-02T16:37:36.700Z,19.60
2023-05-02T16:40:27.693Z,19.60
2023-05-02T16:43:17.561Z,19.60
2023-05-02T16:46:07.750Z,19.50
2023-05-02T16:48:56.604Z,19.50
2023-05-02T16:51:45.400Z,19.40
2023-05-02T16:54:35.599Z,19.40
2023-05-02T16:57:24.553Z,19.30
2023-05-02T17:00:15.110Z,19.20
2023-05-02T17:03:05.427Z,19.20
2023-05-02T17:05:54.599Z,19.10
2023-05-02T17:08:43.308Z,19.10
2023-05-02T17:11:33.705Z,19.20
2023-05-02T17:14:22.463Z,19.10
2023-05-02T17:17:11.605Z,19.10
2023-05-02T17:20:01.376Z,19.10
2023-05-02T17:22:50.151Z,19.10
2023-05-02T17:25:39.594Z,18.90
2023-05-02T17:28:29.702Z,18.90
2023-05-02T17:31:18.576Z,18.90
2023-05-02T17:34:07.426Z,18.90
2023-05-02T17:36:56.440Z,18.80
2023-05-02T17:39:45.809Z,18.80
2023-05-02T17:42:34.598Z,18.80
2023-05-02T17:45:25.129Z,18.70
2023-05-02T17:48:14.214Z,18.60
2023-05-02T17:51:03.576Z,18.70
2023-05-02T17:53:52.941Z,18.60
2023-05-02T17:56:42.754Z,18.70
2023-05-02T17:59:31.749Z,18.60
2023-05-02T18:02:22.728Z,18.60
2023-05-02T18:05:12.230Z,18.60
2023-05-02T18:08:01.183Z,18.50
2023-05-02T18:10:49.904Z,18.40
2023-05-02T18:13:39.758Z,18.40
2023-05-02T18:16:29.253Z,18.30
2023-05-02T18:19:20.055Z,18.20
2023-05-02T18:22:08.970Z,18.20
2023-05-02T18:24:57.859Z,18.10
2023-05-02T18:27:46.748Z,18.20
2023-05-02T18:30:37.913Z,18.10
2023-05-02T18:33:26.778Z,18.10
2023-05-02T18:36:19.458Z,18.20
2023-05-02T18:39:08.332Z,18.30
2023-05-02T18:41:57.088Z,18.30
2023-05-02T18:44:45.818Z,18.40
2023-05-02T18:47:35.073Z,18.40
2023-05-02T18:50:26.278Z,18.20
2023-05-02T18:53:16.915Z,18.30
2023-05-02T18:56:12.501Z,18.20
2023-05-02T18:59:02.330Z,18.20
2023-05-02T19:01:51.184Z,18.20
2023-05-02T19:04:39.986Z,18.20
2023-05-02T19:07:28.945Z,18.10
2023-05-02T19:10:19.269Z,18.10
2023-05-02T19:13:08.027Z,18.10
2023-05-02T19:15:56.920Z,18.10
2023-05-02T19:18:45.736Z,18.10
2023-05-02T19:21:35.457Z,18.00
2023-05-02T19:24:24.613Z,18.00
2023-05-02T19:27:14.788Z,17.90
2023-05-02T19:30:04.530Z,17.90
2023-05-02T19:32:53.412Z,17.60
2023-05-02T19:35:42.698Z,17.40
2023-05-02T19:38:31.474Z,17.40
2023-05-02T19:41:20.423Z,17.20
2023-05-02T19:44:11.024Z,17.10
2023-05-02T19:46:59.922Z,17.10
2023-05-02T19:49:48.689Z,16.60
2023-05-02T19:52:39.179Z,16.30
2023-05-02T19:55:28.269Z,16.20
2023-05-02T19:58:17.240Z,16.10
2023-05-02T20:01:07.611Z,16.10
2023-05-02T20:03:56.753Z,16.00
2023-05-02T20:06:45.826Z,16.00
2023-05-02T20:09:34.692Z,16.00
2023-05-02T20:12:23.582Z,15.80
2023-05-02T20:15:13.161Z,15.90
2023-05-02T20:18:28.713Z,15.80
2023-05-02T20:21:17.739Z,15.70
2023-05-02T20:24:07.328Z,15.50
2023-05-02T20:26:56.231Z,15.90
2023-05-02T20:29:44.912Z,15.70
2023-05-02T20:32:34.237Z,15.50
2023-05-02T20:35:24.613Z,15.60
2023-05-02T20:38:13.658Z,15.40
2023-05-02T20:41:07.872Z,15.40
2023-05-02T20:43:57.382Z,15.20
2023-05-02T20:46:51.629Z,15.20
2023-05-02T20:49:40.689Z,15.20
2023-05-02T20:52:30.963Z,15.10
2023-05-02T20:55:22.858Z,15.20
2023-05-02T20:58:11.613Z,15.00
2023-05-02T21:01:01.040Z,14.90
2023-05-02T21:03:49.820Z,14.90
2023-05-02T21:06:39.069Z,14.80
2023-05-02T21:09:29.533Z,14.80
2023-05-02T21:12:18.660Z,14.80
2023-05-02T21:15:09.025Z,14.90
2023-05-02T21:18:04.859Z,14.80
2023-05-02T21:20:53.743Z,14.90
2023-05-02T21:23:42.467Z,15.10
2023-05-02T21:26:32.569Z,14.70
2023-05-02T21:29:21.371Z,14.60
2023-05-02T21:32:10.205Z,14.60
2023-05-02T21:34:59.109Z,14.50
2023-05-02T21:37:48.084Z,14.50
2023-05-02T21:40:38.159Z,14.30
2023-05-02T21:43:29.708Z,14.30
2023-05-02T21:46:18.519Z,14.20
2023-05-02T21:49:07.642Z,14.30
2023-05-02T21:51:58.450Z,14.50
2023-05-02T21:54:50.135Z,14.70
2023-05-02T21:57:39.471Z,14.60
2023-05-02T22:00:29.746Z,14.40
2023-05-02T22:03:18.859Z,14.20
2023-05-02T22:06:08.130Z,14.20
2023-05-02T22:08:56.988Z,14.20
2023-05-02T22:11:45.673Z,14.20
2023-05-02T22:14:44.472Z,14.30
2023-05-02T22:17:35.760Z,14.20
2023-05-02T22:20:25.318Z,14.30
2023-05-02T22:23:14.359Z,14.30
2023-05-02T22:26:03.412Z,14.40
2023-05-02T22:28:52.176Z,14.20
2023-05-02T22:31:40.903Z,14.10
2023-05-02T22:34:31.068Z,14.10
2023-05-02T22:37:19.786Z,14.00
2023-05-02T22:40:10.388Z,13.90
2023-05-02T22:42:59.063Z,13.60
2023-05-02T22:45:49.544Z,13.60
2023-05-02T22:48:40.847Z,13.60
2023-05-02T22:51:31.045Z,13.60
2023-05-02T22:54:21.438Z,13.50
2023-05-02T22:57:10.238Z,13.50
2023-05-02T22:59:59.088Z,13.60
2023-05-02T23:02:47.823Z,13.50
2023-05-02T23:05:36.645Z,13.20
2023-05-02T23:08:27.275Z,13.40
2023-05-02T23:11:16.129Z,13.50
2023-05-02T23:14:04.880Z,13.50
2023-05-02T23:16:54.771Z,13.50
2023-05-02T23:19:43.505Z,13.50
2023-05-02T23:22:32.387Z,13.20
2023-05-02T23:25:24.437Z,13.30
2023-05-02T23:28:13.379Z,13.20
2023-05-02T23:31:02.254Z,12.90
2023-05-02T23:33:51.089Z,12.90
2023-05-02T23:36:40.056Z,12.90
2023-05-02T23:39:28.919Z,13.00
2023-05-02T23:42:19.516Z,13.00
2023-05-02T23:45:09.332Z,13.10
2023-05-02T23:47:58.089Z,13.10
2023-05-02T23:50:46.814Z,12.90
2023-05-02T23:53:35.575Z,13.00
2023-05-02T23:56:24.218Z,12.90
2023-05-02T23:59:14.289Z,13.10
